EST,Max TemperatureF,Mean TemperatureF,Min TemperatureF,Max Dew PointF,MeanDew PointF,Min DewpointF,Max Humidity, Mean Humidity, Min Humidity, Max Sea Level PressureIn, Mean Sea Level PressureIn, Min Sea Level PressureIn, Max VisibilityMiles, Mean VisibilityMiles, Min VisibilityMiles, Max Wind SpeedMPH, Mean Wind SpeedMPH, Max Gust SpeedMPH,PrecipitationIn, CloudCover, Events, WindDirDegrees
2013-1-1,32,22,12,25,14,-2,80,61,46,29.94,29.77,29.66,10,10,10,16,6,28,0.00,5,,279
2013-1-2,21,11,1,14,4,-9,83,65,56,30.13,29.97,29.84,10,8,1,13,6,23,0.00,4,Snow,271
2013-1-3,18,9,0,5,-6,-12,73,52,29,30.14,30.08,29.99,10,10,10,8,4,,0.00,2,,230
2013-1-4,34,24,15,19,16,9,93,67,50,29.97,29.88,29.81,10,9,5,12,7,25,0.00,5,Snow,226
2013-1-5,35,24,12,20,15,10,88,61,37,30.27,30.10,29.83,10,10,10,16,6,26,0.00,3,,283
2013-1-6,35,25,15,25,21,12,96,85,64,30.21,30.02,29.90,10,8,2,8,2,,0.00,6,Snow,214
2013-1-7,32,20,8,26,15,5,92,71,40,30.40,30.26,29.99,10,10,10,8,3,16,0.00,2,,253
2013-1-8,39,22,6,23,15,3,92,75,45,30.38,30.32,30.29,10,10,8,8,2,22,0.00,0,,200
2013-1-9,39,24,10,31,21,8,100,81,47,30.42,30.23,30.03,10,8,2,17,3,29,0.01,2,,213
2013-1-10,39,34,28,27,20,18,72,55,43,30.55,30.37,30.05,10,10,10,18,9,33,0.00,1,,311
2013-1-11,35,26,18,34,26,16,100,86,50,30.53,30.34,30.17,10,8,1,8,1,,0.08,5,Rain,171
2013-1-12,39,36,33,40,36,33,100,100,96,30.22,30.15,30.10,4,1,0,7,1,,0.01,8,Fog,202
2013-1-13,45,40,35,45,41,35,100,100,100,30.15,30.06,29.98,9,1,0,10,5,,0.00,8,Fog,200
2013-1-14,53,43,33,47,39,22,100,88,54,30.27,30.03,29.84,10,6,0,14,6,22,0.01,4,Fog-Rain,231
2013-1-15,36,30,25,25,22,19,92,72,52,30.34,30.29,30.25,10,10,10,6,0,,0.00,1,,293
2013-1-16,30,28,26,30,27,22,100,94,75,30.25,29.94,29.77,10,4,0,8,1,,0.34,8,Fog-Rain-Snow,204
2013-1-17,36,30,21,29,20,2,96,70,42,30.11,29.96,29.80,10,10,10,10,6,21,0.00,2,,251
2013-1-18,21,15,9,4,-4,-9,64,45,31,30.42,30.30,30.09,10,10,10,13,5,22,0.00,2,,273
2013-1-19,39,29,19,25,16,5,64,54,45,30.30,30.09,29.86,10,10,10,16,11,31,0.00,1,,206
2013-1-20,42,32,21,27,19,7,70,56,29,29.94,29.73,29.56,10,10,10,20,11,34,0.00,3,,233
2013-1-21,21,16,12,16,6,-2,92,62,41,30.06,29.94,29.76,10,9,2,12,6,22,0.00,5,Snow,240
2013-1-22,16,12,1,12,5,-8,93,73,43,30.06,29.83,29.70,10,7,2,13,2,23,0.00,6,Snow,256
2013-1-23,8,4,-5,-7,-13,-16,69,48,34,30.12,30.09,29.98,10,10,10,12,4,22,0.01,0,,275
2013-1-24,12,2,-9,-12,-15,-17,79,47,29,30.24,30.14,30.01,10,10,10,12,4,25,0.00,0,,304
2013-1-25,15,8,1,7,-9,-15,84,45,29,30.31,30.19,29.99,10,9,2,14,6,23,0.00,3,Snow,259
2013-1-26,17,11,5,7,-2,-12,85,60,32,30.25,30.09,29.95,10,9,2,13,3,22,0.00,2,Snow,328
2013-1-27,23,15,7,0,-3,-7,67,51,27,30.49,30.39,30.25,10,10,10,10,5,21,0.00,0,,310
2013-1-28,21,15,9,20,15,0,93,82,46,30.46,30.16,29.96,10,4,0,8,2,,0.17,8,Fog-Rain-Snow,187
2013-1-29,30,24,18,30,24,16,100,91,85,30.19,30.11,29.97,10,8,2,6,2,,0.01,8,Rain-Snow,164
2013-1-30,54,42,30,54,44,30,100,99,93,30.12,29.72,29.40,10,2,0,16,6,30,0.06,8,Fog-Rain,199
2013-1-31,57,41,25,56,37,11,100,78,46,29.57,29.20,28.95,10,6,1,25,15,43,1.08,7,Rain-Snow,236